sim
Sign-in with your pilot id or email,
or register
Callsign
Passwort

Schedule Details

Flight Number: RYR1247 (2)
Departure: Bratislava M. R. Stefanik Airport (LZIB) at 13:00
Arrival: Athens Eleftherios Venizelos (LGAV) at 15:10
Route: Ryanair Passenger Schedule. Enter filed route here before submitting Pirep.

Weather Information
Getting current METAR information for LZIB 280430Z 26006KT CAVOK 14/07 Q1025 NOSIG
Getting current METAR information for LGAV 280450Z 02004KT 360V060 9999 FEW030 SCT070 17/08 Q1019 NOSIG

Schedule Frequency

Route Map